Site contains unofficial IBTrACS data. Visit the IBTrACS Website to access archived data.

1899 Hurricane NOT_NAMED (1899241N17303)


IBTrACS version v04r00. Visit IBTrACS website for data access.
Please direct all questions to the IBTrACS Q and A forum

Storm track - Intensity - Wind Radii - Intensity Data - Source Data - All data

Summary Information

Storm ID 1899241N17303
Start Aug 29 06Z
Landfall Sep 1 18Z
Max Intensity 90 kt (Sep 3 18Z)
End Sep 8 18Z
ATCF IDs AL041899
Track status Best track data.

Storm track plot

Map of storm track

Intensity plots

Map of storm track

Radial wind information

No radial wind information for this storm


Position and Intensity Table

BASIN ISO_TIME_________ NATURE LAT LON WMO WIND USA WIND
degrees north degrees east kts kts
NA 1899-08-29 06:00:00 TS 16.80 -57.30 60 60
NA 09:00:00 TS 16.80 -57.90 60
NA 12:00:00 TS 16.80 -58.50 60 60
NA 15:00:00 TS 16.80 -59.11 60
NA 18:00:00 TS 16.80 -59.70 60 60
NA 21:00:00 TS 16.80 -60.26 62
NA 1899-08-30 00:00:00 TS 16.80 -60.80 65 65
NA 03:00:00 TS 16.81 -61.35 67
NA 06:00:00 TS 16.80 -61.90 70 70
NA 09:00:00 TS 16.76 -62.45 70
NA 12:00:00 TS 16.70 -63.00 70 70
NA 15:00:00 TS 16.64 -63.54 70
NA 18:00:00 TS 16.60 -64.10 70 70
NA 21:00:00 TS 16.59 -64.73 70
NA 1899-08-31 00:00:00 TS 16.60 -65.40 70 70
NA 03:00:00 TS 16.61 -66.05 70
NA 06:00:00 TS 16.60 -66.70 70 70
NA 09:00:00 TS 16.54 -67.37 70
NA 12:00:00 TS 16.50 -68.00 70 70
NA 15:00:00 TS 16.53 -68.52 70
NA 18:00:00 TS 16.60 -69.00 70 70
NA 21:00:00 TS 16.63 -69.50 70
NA 1899-09-01 00:00:00 TS 16.70 -70.00 70 70
NA 03:00:00 TS 16.82 -70.50 70
NA 06:00:00 TS 17.00 -71.00 70 70
NA 09:00:00 TS 17.20 -71.56 70
NA 12:00:00 TS 17.50 -72.00 70 70
NA 15:00:00 TS 17.98 -72.18 62
NA 18:00:00 TS 18.50 -72.20 55 55
NA 21:00:00 TS 18.86 -72.18 47
NA 1899-09-02 00:00:00 TS 19.20 -72.10 40 40
NA 03:00:00 TS 19.60 -72.01 45
NA 06:00:00 TS 20.00 -71.90 50 50
NA 09:00:00 TS 20.33 -71.82 52
NA 12:00:00 TS 20.70 -71.70 55 55
NA 15:00:00 TS 21.19 -71.47 57
NA 18:00:00 TS 21.70 -71.20 60 60
NA 21:00:00 TS 22.15 -71.00 62
NA 1899-09-03 00:00:00 TS 22.60 -70.80 65 65
NA 03:00:00 TS 23.10 -70.54 70
NA 06:00:00 TS 23.60 -70.30 75 75
NA 09:00:00 TS 24.03 -70.16 80
NA 12:00:00 TS 24.50 -70.00 85 85
NA 15:00:00 TS 25.07 -69.67 87
NA 18:00:00 TS 25.70 -69.30 90 90
NA 21:00:00 TS 26.35 -68.99 90
NA 1899-09-04 00:00:00 TS 27.00 -68.70 90 90
NA 03:00:00 TS 27.60 -68.40 90
NA 06:00:00 TS 28.20 -68.10 90 90
NA 09:00:00 TS 28.78 -67.86 87
NA 12:00:00 TS 29.50 -67.50 85 85
NA 15:00:00 TS 30.52 -66.86 82
NA 18:00:00 TS 31.60 -66.00 80 80
NA 21:00:00 TS 32.52 -65.00 77
NA 1899-09-05 00:00:00 TS 33.30 -63.90 75 75
NA 03:00:00 TS 33.95 -62.81 70
NA 06:00:00 TS 34.50 -61.70 65 65
NA 09:00:00 TS 35.05 -60.53 62
NA 12:00:00 ET 35.50 -59.50 60 60
NA 15:00:00 ET 35.84 -58.82 60
NA 18:00:00 ET 36.10 -58.30 60 60
NA 21:00:00 ET 36.35 -57.71 60
NA 1899-09-06 00:00:00 ET 36.60 -57.10 60 60
NA 03:00:00 ET 36.88 -56.46 60
NA 06:00:00 ET 37.20 -55.80 60 60
NA 09:00:00 ET 37.58 -55.11 60
NA 12:00:00 ET 38.00 -54.40 60 60
NA 15:00:00 ET 38.44 -53.69 60
NA 18:00:00 ET 38.90 -53.00 60 60
NA 21:00:00 ET 39.34 -52.32 60
NA 1899-09-07 00:00:00 ET 39.80 -51.70 60 60
NA 03:00:00 ET 40.29 -51.17 60
NA 06:00:00 ET 40.80 -50.70 60 60
NA 09:00:00 ET 41.29 -50.23 60
NA 12:00:00 ET 41.80 -49.80 60 60
NA 15:00:00 ET 42.33 -49.39 57
NA 18:00:00 ET 42.90 -49.00 55 55
NA 21:00:00 ET 43.49 -48.58 52
NA 1899-09-08 00:00:00 ET 44.10 -48.20 50 50
NA 03:00:00 ET 44.74 -47.88 47
NA 06:00:00 ET 45.40 -47.60 45 45
NA 09:00:00 ET 46.04 -47.31 42
NA 12:00:00 ET 46.70 -47.10 40 40
NA 15:00:00 ET 47.39 -47.01 40
NA 18:00:00 ET 48.10 -47.00 40 40

Source Information

Agency Information
USA hurdat2-1851-2019-042820.txt:Line=9384:UNNAMED
TOKYO
CMA
HKO
NEWDELHI
REUNION
BOM
NADI
WELLINGTON
DS824
TD9636
TD9635
NEUMANN
MLC

All available IBTrACS Data

SEASON BASIN SUBBASIN ISO_TIME_________ NATURE LAT LON WMO WIND WMO AGENCY DIST2LAND LANDFALL IFLAG USA AGENCY USA ATCF_ID USA LAT USA LON USA STATUS USA WIND USA SSHS STORM SPEED STORM DIR
Year degrees north degrees east kts km km degrees north degrees east kts 1 kts degrees
1899 NA NA 1899-08-29 06:00:00 TS 16.80 -57.30 60 hurdat_atl 791 760 O_____________ hurdat_atl AL041899 16.80 -57.30 TS 60 0 11 270
1899 NA NA 09:00:00 TS 16.80 -57.90 760 734 P_____________ AL041899 16.80 -57.90 TS 60 0 11 270
1899 NA NA 12:00:00 TS 16.80 -58.50 60 hurdat_atl 734 706 O_____________ hurdat_atl AL041899 16.80 -58.50 TS 60 0 12 270
1899 NA NA 15:00:00 TS 16.80 -59.11 706 645 P_____________ AL041899 16.80 -59.11 TS 60 0 11 270
1899 NA NA 18:00:00 TS 16.80 -59.70 60 hurdat_atl 645 593 O_____________ hurdat_atl AL041899 16.80 -59.70 TS 60 0 11 270
1899 NA NA 21:00:00 TS 16.80 -60.26 583 532 P_____________ AL041899 16.80 -60.26 TS 62 0 11 270
1899 NA CS 1899-08-30 00:00:00 TS 16.80 -60.80 65 hurdat_atl 532 482 O_____________ hurdat_atl AL041899 16.80 -60.80 HU 65 1 10 270
1899 NA CS 03:00:00 TS 16.81 -61.35 482 422 P_____________ AL041899 16.81 -61.35 HU 67 1 11 270
1899 NA CS 06:00:00 TS 16.80 -61.90 70 hurdat_atl 422 373 O_____________ hurdat_atl AL041899 16.80 -61.90 HU 70 1 11 267
1899 NA CS 09:00:00 TS 16.76 -62.45 364 322 P_____________ AL041899 16.76 -62.45 HU 70 1 11 265
1899 NA CS 12:00:00 TS 16.70 -63.00 70 hurdat_atl 322 285 O_____________ hurdat_atl AL041899 16.70 -63.00 HU 70 1 10 264
1899 NA CS 15:00:00 TS 16.64 -63.54 285 239 P_____________ AL041899 16.64 -63.54 HU 70 1 11 265
1899 NA CS 18:00:00 TS 16.60 -64.10 70 hurdat_atl 239 195 O_____________ hurdat_atl AL041899 16.60 -64.10 HU 70 1 12 268
1899 NA CS 21:00:00 TS 16.59 -64.73 195 162 P_____________ AL041899 16.59 -64.73 HU 70 1 12 270
1899 NA CS 1899-08-31 00:00:00 TS 16.60 -65.40 70 hurdat_atl 162 147 O_____________ hurdat_atl AL041899 16.60 -65.40 HU 70 1 13 271
1899 NA CS 03:00:00 TS 16.61 -66.05 147 145 P_____________ AL041899 16.61 -66.05 HU 70 1 12 270
1899 NA CS 06:00:00 TS 16.60 -66.70 70 hurdat_atl 147 145 O_____________ hurdat_atl AL041899 16.60 -66.70 HU 70 1 13 267
1899 NA CS 09:00:00 TS 16.54 -67.37 158 158 P_____________ AL041899 16.54 -67.37 HU 70 1 13 265
1899 NA CS 12:00:00 TS 16.50 -68.00 70 hurdat_atl 178 178 O_____________ hurdat_atl AL041899 16.50 -68.00 HU 70 1 11 270
1899 NA CS 15:00:00 TS 16.53 -68.52 190 179 P_____________ AL041899 16.53 -68.52 HU 70 1 10 276
1899 NA CS 18:00:00 TS 16.60 -69.00 70 hurdat_atl 180 180 O_____________ hurdat_atl AL041899 16.60 -69.00 HU 70 1 9 276
1899 NA CS 21:00:00 TS 16.63 -69.50 193 169 P_____________ AL041899 16.63 -69.50 HU 70 1 10 276
1899 NA CS 1899-09-01 00:00:00 TS 16.70 -70.00 70 hurdat_atl 169 130 O_____________ hurdat_atl AL041899 16.70 -70.00 HU 70 1 10 281
1899 NA CS 03:00:00 TS 16.82 -70.50 130 79 P_____________ AL041899 16.82 -70.50 HU 70 1 10 287
1899 NA CS 06:00:00 TS 17.00 -71.00 70 hurdat_atl 79 46 O_____________ hurdat_atl AL041899 17.00 -71.00 HU 70 1 11 290
1899 NA CS 09:00:00 TS 17.20 -71.56 49 46 P_____________ AL041899 17.20 -71.56 HU 70 1 11 298
1899 NA CS 12:00:00 TS 17.50 -72.00 70 hurdat_atl 54 22 O_____________ hurdat_atl AL041899 17.50 -72.00 HU 70 1 10 323
1899 NA CS 15:00:00 TS 17.98 -72.18 22 0 P_____________ AL041899 17.98 -72.18 HU 62 0 10 349
1899 NA NA 18:00:00 TS 18.50 -72.20 55 hurdat_atl 0 0 O_____________ hurdat_atl AL041899 18.50 -72.20 TS 55 0 9 1
1899 NA NA 21:00:00 TS 18.86 -72.18 0 0 P_____________ AL041899 18.86 -72.18 TS 47 0 7 8
1899 NA NA 1899-09-02 00:00:00 TS 19.20 -72.10 40 hurdat_atl 0 0 O_____________ hurdat_atl AL041899 19.20 -72.10 TS 40 0 8 12
1899 NA NA 03:00:00 TS 19.60 -72.01 0 0 P_____________ AL041899 19.60 -72.01 TS 45 0 8 13
1899 NA NA 06:00:00 TS 20.00 -71.90 50 hurdat_atl 24 24 O_____________ hurdat_atl AL041899 20.00 -71.90 TS 50 0 8 13
1899 NA NA 09:00:00 TS 20.33 -71.82 55 55 P_____________ AL041899 20.33 -71.82 TS 52 0 7 15
1899 NA NA 12:00:00 TS 20.70 -71.70 55 hurdat_atl 100 100 O_____________ hurdat_atl AL041899 20.70 -71.70 TS 55 0 9 21
1899 NA NA 15:00:00 TS 21.19 -71.47 155 155 P_____________ AL041899 21.19 -71.47 TS 57 0 11 25
1899 NA NA 18:00:00 TS 21.70 -71.20 60 hurdat_atl 194 194 O_____________ hurdat_atl AL041899 21.70 -71.20 TS 60 0 11 24
1899 NA NA 21:00:00 TS 22.15 -71.00 229 229 P_____________ AL041899 22.15 -71.00 TS 62 0 10 22
1899 NA NA 1899-09-03 00:00:00 TS 22.60 -70.80 65 hurdat_atl 275 275 O_____________ hurdat_atl AL041899 22.60 -70.80 HU 65 1 10 24
1899 NA NA 03:00:00 TS 23.10 -70.54 333 333 P_____________ AL041899 23.10 -70.54 HU 70 1 11 25
1899 NA NA 06:00:00 TS 23.60 -70.30 75 hurdat_atl 385 385 O_____________ hurdat_atl AL041899 23.60 -70.30 HU 75 1 10 20
1899 NA NA 09:00:00 TS 24.03 -70.16 424 424 P_____________ AL041899 24.03 -70.16 HU 80 1 9 17
1899 NA NA 12:00:00 TS 24.50 -70.00 85 hurdat_atl 480 480 O_____________ hurdat_atl AL041899 24.50 -70.00 HU 85 2 11 23
1899 NA NA 15:00:00 TS 25.07 -69.67 551 551 P_____________ AL041899 25.07 -69.67 HU 87 2 14 28
1899 NA NA 18:00:00 TS 25.70 -69.30 90 hurdat_atl 628 628 O_____________ hurdat_atl AL041899 25.70 -69.30 HU 90 2 14 26
1899 NA NA 21:00:00 TS 26.35 -68.99 700 700 P_____________ AL041899 26.35 -68.99 HU 90 2 14 23
1899 NA NA 1899-09-04 00:00:00 TS 27.00 -68.70 90 hurdat_atl 781 781 O_____________ hurdat_atl AL041899 27.00 -68.70 HU 90 2 14 23
1899 NA NA 03:00:00 TS 27.60 -68.40 853 853 P_____________ AL041899 27.60 -68.40 HU 90 2 13 24
1899 NA NA 06:00:00 TS 28.20 -68.10 90 hurdat_atl 925 925 O_____________ hurdat_atl AL041899 28.20 -68.10 HU 90 2 13 22
1899 NA NA 09:00:00 TS 28.78 -67.86 992 992 P_____________ AL041899 28.78 -67.86 HU 87 2 14 22
1899 NA NA 12:00:00 TS 29.50 -67.50 85 hurdat_atl 1021 993 O_____________ hurdat_atl AL041899 29.50 -67.50 HU 85 2 20 27
1899 NA NA 15:00:00 TS 30.52 -66.86 993 983 P_____________ AL041899 30.52 -66.86 HU 82 1 25 32
1899 NA NA 18:00:00 TS 31.60 -66.00 80 hurdat_atl 993 993 O_____________ hurdat_atl AL041899 31.60 -66.00 HU 80 1 26 38
1899 NA NA 21:00:00 TS 32.52 -65.00 1031 1031 P_____________ AL041899 32.52 -65.00 HU 77 1 25 46
1899 NA NA 1899-09-05 00:00:00 TS 33.30 -63.90 75 hurdat_atl 1077 1062 O_____________ hurdat_atl AL041899 33.30 -63.90 HU 75 1 23 52
1899 NA NA 03:00:00 TS 33.95 -62.81 1063 1046 P_____________ AL041899 33.95 -62.81 HU 70 1 22 57
1899 NA NA 06:00:00 TS 34.50 -61.70 65 hurdat_atl 1048 1024 O_____________ hurdat_atl AL041899 34.50 -61.70 HU 65 1 22 60
1899 NA NA 09:00:00 TS 35.05 -60.53 1031 1014 P_____________ AL041899 35.05 -60.53 HU 62 0 21 61
1899 NA NA 12:00:00 ET 35.50 -59.50 60 hurdat_atl 1018 1011 O_____________ hurdat_atl AL041899 35.50 -59.50 EX 60 -4 16 60
1899 NA NA 15:00:00 ET 35.84 -58.82 1020 1010 P_____________ AL041899 35.84 -58.82 EX 60 -4 11 58
1899 NA NA 18:00:00 ET 36.10 -58.30 60 hurdat_atl 1015 1011 O_____________ hurdat_atl AL041899 36.10 -58.30 EX 60 -4 10 60
1899 NA NA 21:00:00 ET 36.35 -57.71 1028 1010 P_____________ AL041899 36.35 -57.71 EX 60 -4 11 63
1899 NA NA 1899-09-06 00:00:00 ET 36.60 -57.10 60 hurdat_atl 1013 999 O_____________ hurdat_atl AL041899 36.60 -57.10 EX 60 -4 11 62
1899 NA NA 03:00:00 ET 36.88 -56.46 999 989 P_____________ AL041899 36.88 -56.46 EX 60 -4 12 60
1899 NA NA 06:00:00 ET 37.20 -55.80 60 hurdat_atl 993 980 O_____________ hurdat_atl AL041899 37.20 -55.80 EX 60 -4 13 57
1899 NA NA 09:00:00 ET 37.58 -55.11 980 958 P_____________ AL041899 37.58 -55.11 EX 60 -4 14 54
1899 NA NA 12:00:00 ET 38.00 -54.40 60 hurdat_atl 958 911 O_____________ hurdat_atl AL041899 38.00 -54.40 EX 60 -4 14 52
1899 NA NA 15:00:00 ET 38.44 -53.69 911 856 P_____________ AL041899 38.44 -53.69 EX 60 -4 14 51
1899 NA NA 18:00:00 ET 38.90 -53.00 60 hurdat_atl 856 814 O_____________ hurdat_atl AL041899 38.90 -53.00 EX 60 -4 14 50
1899 NA NA 21:00:00 ET 39.34 -52.32 814 765 P_____________ AL041899 39.34 -52.32 EX 60 -4 13 48
1899 NA NA 1899-09-07 00:00:00 ET 39.80 -51.70 60 hurdat_atl 765 718 O_____________ hurdat_atl AL041899 39.80 -51.70 EX 60 -4 13 43
1899 NA NA 03:00:00 ET 40.29 -51.17 718 675 P_____________ AL041899 40.29 -51.17 EX 60 -4 13 37
1899 NA NA 06:00:00 ET 40.80 -50.70 60 hurdat_atl 675 632 O_____________ hurdat_atl AL041899 40.80 -50.70 EX 60 -4 12 35
1899 NA NA 09:00:00 ET 41.29 -50.23 635 597 P_____________ AL041899 41.29 -50.23 EX 60 -4 12 34
1899 NA NA 12:00:00 ET 41.80 -49.80 60 hurdat_atl 597 564 O_____________ hurdat_atl AL041899 41.80 -49.80 EX 60 -4 12 31
1899 NA NA 15:00:00 ET 42.33 -49.39 564 527 P_____________ AL041899 42.33 -49.39 EX 57 -4 12 28
1899 NA NA 18:00:00 ET 42.90 -49.00 55 hurdat_atl 527 498 O_____________ hurdat_atl AL041899 42.90 -49.00 EX 55 -4 13 27
1899 NA NA 21:00:00 ET 43.49 -48.58 498 477 P_____________ AL041899 43.49 -48.58 EX 52 -4 13 26
1899 NA NA 1899-09-08 00:00:00 ET 44.10 -48.20 50 hurdat_atl 477 457 O_____________ hurdat_atl AL041899 44.10 -48.20 EX 50 -4 14 22
1899 NA NA 03:00:00 ET 44.74 -47.88 457 439 P_____________ AL041899 44.74 -47.88 EX 47 -4 14 18
1899 NA NA 06:00:00 ET 45.40 -47.60 45 hurdat_atl 442 432 O_____________ hurdat_atl AL041899 45.40 -47.60 EX 45 -4 14 17
1899 NA NA 09:00:00 ET 46.04 -47.31 435 422 P_____________ AL041899 46.04 -47.31 EX 42 -4 13 15
1899 NA NA 12:00:00 ET 46.70 -47.10 40 hurdat_atl 423 416 O_____________ hurdat_atl AL041899 46.70 -47.10 EX 40 -4 14 9
1899 NA NA 15:00:00 ET 47.39 -47.01 419 418 P_____________ AL041899 47.39 -47.01 EX 40 -4 14 3
1899 NA NA 18:00:00 ET 48.10 -47.00 40 hurdat_atl 421 O_____________ hurdat_atl AL041899 48.10 -47.00 EX 40 -4 14 0